Time;durP1;ratioP1;P1;durP2;ratioP2;P2;SDS_P1;SDS_P2;PMS_P1;PMS_P2;Temp;Humidity;BMP_temperature;BMP_pressure;BME280_temperature;BME280_humidity;BME280_pressure;Samples;Min_cycle;Max_cycle;Signal;HPM_P1;HPM_P2
2023/01/10 00:01:47;;;;;;;0.30;0.30;;;5.60;99.90;;;;;;5046542;28;20714;-86
2023/01/10 00:04:13;;;;;;;0.20;0.20;;;5.60;99.90;;;;;;5042621;28;20733;-85
2023/01/10 00:06:38;;;;;;;0.30;0.30;;;5.60;99.90;;;;;;5027473;28;20284;-84
2023/01/10 00:09:04;;;;;;;0.30;0.30;;;5.60;99.90;;;;;;5048128;28;20225;-85
2023/01/10 00:14:13;;;;;;;0.30;0.30;;;5.60;99.90;;;;;;5042184;28;20693;-86
2023/01/10 00:16:41;;;;;;;0.30;0.30;;;5.60;99.90;;;;;;5045048;28;20445;-84
2023/01/10 00:19:09;;;;;;;0.30;0.30;;;5.70;99.90;;;;;;5030181;28;20204;-85
2023/01/10 00:21:35;;;;;;;0.30;0.30;;;5.70;99.90;;;;;;5044535;28;20449;-85
2023/01/10 00:24:19;;;;;;;0.30;0.30;;;5.70;99.90;;;;;;5044910;28;20876;-86
2023/01/10 00:26:50;;;;;;;0.30;0.30;;;5.70;99.90;;;;;;5039777;28;20441;-85
2023/01/10 00:29:19;;;;;;;0.30;0.30;;;5.70;99.90;;;;;;5044964;28;20447;-85
2023/01/10 00:31:45;;;;;;;0.20;0.20;;;5.70;99.90;;;;;;5043067;28;20520;-85
2023/01/10 00:34:11;;;;;;;0.30;0.30;;;5.80;99.90;;;;;;5047961;28;20851;-85
2023/01/10 00:36:36;;;;;;;0.30;0.30;;;5.80;99.90;;;;;;5047659;28;20194;-85
2023/01/10 00:39:03;;;;;;;0.30;0.30;;;5.70;99.90;;;;;;5029186;28;20179;-85
2023/01/10 00:44:12;;;;;;;0.30;0.30;;;5.80;99.90;;;;;;5046199;28;20452;-85
2023/01/10 00:46:38;;;;;;;0.30;0.30;;;5.80;99.90;;;;;;5046287;28;20445;-85
2023/01/10 00:49:07;;;;;;;0.30;0.30;;;5.80;99.90;;;;;;5048411;28;20206;-85
2023/01/10 00:51:33;;;;;;;0.30;0.30;;;5.80;99.90;;;;;;5030208;28;20719;-86
2023/01/10 00:53:58;;;;;;;0.30;0.30;;;5.80;99.90;;;;;;5048394;28;20516;-86
2023/01/10 00:56:24;;;;;;;0.30;0.30;;;5.80;99.90;;;;;;5047803;28;20278;-85
2023/01/10 00:58:49;;;;;;;0.30;0.30;;;5.70;99.90;;;;;;5046940;28;20805;-85
2023/01/10 01:01:15;;;;;;;0.30;0.30;;;5.80;99.90;;;;;;5039674;28;20191;-85
2023/01/10 01:03:40;;;;;;;0.20;0.20;;;5.80;99.90;;;;;;5046865;28;20219;-85
2023/01/10 01:06:07;;;;;;;0.30;0.30;;;5.80;99.90;;;;;;5042766;28;20219;-85
2023/01/10 01:08:32;;;;;;;0.30;0.30;;;5.70;99.90;;;;;;5031120;28;21170;-85
2023/01/10 01:10:58;;;;;;;0.20;0.20;;;5.70;99.90;;;;;;5046534;28;20535;-85
2023/01/10 01:13:24;;;;;;;0.30;0.30;;;5.70;99.90;;;;;;5025720;28;20186;-85
2023/01/10 01:15:50;;;;;;;0.30;0.30;;;5.80;99.90;;;;;;5036905;28;20183;-85
2023/01/10 01:18:19;;;;;;;0.30;0.30;;;5.70;99.90;;;;;;5047994;28;20426;-85
2023/01/10 01:20:46;;;;;;;0.30;0.30;;;5.70;99.90;;;;;;5043803;28;20186;-85
2023/01/10 01:23:12;;;;;;;0.30;0.30;;;5.70;99.90;;;;;;5050906;28;21015;-86
2023/01/10 01:25:38;;;;;;;0.30;0.30;;;5.70;99.90;;;;;;5042948;28;20437;-85
2023/01/10 01:28:04;;;;;;;0.30;0.30;;;5.60;99.90;;;;;;5049668;28;20472;-86
2023/01/10 01:30:29;;;;;;;0.30;0.30;;;5.70;99.90;;;;;;5032589;28;20654;-85
2023/01/10 01:32:55;;;;;;;0.30;0.30;;;5.70;99.90;;;;;;5030425;28;20597;-85
2023/01/10 01:35:21;;;;;;;0.30;0.30;;;5.70;99.90;;;;;;5045911;28;20206;-85
2023/01/10 01:37:46;;;;;;;0.30;0.30;;;5.70;99.90;;;;;;5033024;28;20215;-85
2023/01/10 01:40:17;;;;;;;0.30;0.30;;;5.70;99.90;;;;;;5040925;28;20199;-85
2023/01/10 01:42:43;;;;;;;0.30;0.30;;;5.70;99.90;;;;;;5032781;28;20197;-85
2023/01/10 01:45:08;;;;;;;0.30;0.30;;;5.70;99.90;;;;;;5047363;28;20449;-85
2023/01/10 01:47:56;;;;;;;0.30;0.30;;;5.70;99.90;;;;;;5050713;28;20476;-84
2023/01/10 01:50:32;;;;;;;0.30;0.30;;;5.70;99.90;;;;;;5032462;28;20282;-85
2023/01/10 01:53:01;;;;;;;0.30;0.30;;;5.70;99.90;;;;;;5048054;28;20495;-85
2023/01/10 01:55:31;;;;;;;0.30;0.30;;;5.70;99.90;;;;;;5049584;28;20481;-85
2023/01/10 01:58:02;;;;;;;0.30;0.30;;;5.70;99.90;;;;;;5032697;28;20445;-85
2023/01/10 02:00:27;;;;;;;0.30;0.30;;;5.70;99.90;;;;;;5049457;28;20449;-85
2023/01/10 02:02:58;;;;;;;0.30;0.30;;;5.70;99.90;;;;;;5051450;28;20505;-85
2023/01/10 02:05:24;;;;;;;0.30;0.30;;;5.70;99.90;;;;;;5050149;28;20615;-86
2023/01/10 02:07:55;;;;;;;0.30;0.30;;;5.70;99.90;;;;;;5048486;28;20456;-85
2023/01/10 02:10:29;;;;;;;0.30;0.30;;;5.70;99.90;;;;;;5047046;28;20422;-85
2023/01/10 02:13:01;;;;;;;0.30;0.30;;;5.70;99.90;;;;;;5045856;28;20481;-85
2023/01/10 02:15:28;;;;;;;0.30;0.30;;;5.70;99.90;;;;;;5046747;28;20442;-85
2023/01/10 02:17:54;;;;;;;0.30;0.30;;;5.70;99.90;;;;;;5032647;28;20872;-85
2023/01/10 02:20:22;;;;;;;0.20;0.20;;;5.70;99.90;;;;;;5049187;28;20444;-84
2023/01/10 02:22:59;;;;;;;0.30;0.30;;;5.70;99.90;;;;;;5031613;28;20180;-84
2023/01/10 02:25:46;;;;;;;0.30;0.30;;;5.70;99.90;;;;;;5046577;28;20433;-86
2023/01/10 02:28:50;;;;;;;0.30;0.30;;;5.70;99.90;;;;;;5047974;28;20445;-85
2023/01/10 02:31:46;;;;;;;0.30;0.30;;;5.70;99.90;;;;;;5044165;28;20468;-85
2023/01/10 02:34:20;;;;;;;0.30;0.30;;;5.70;99.90;;;;;;5032650;28;20448;-85
2023/01/10 02:36:49;;;;;;;0.30;0.30;;;5.70;99.90;;;;;;5047190;28;20475;-84
2023/01/10 02:39:32;;;;;;;0.30;0.30;;;5.60;99.90;;;;;;5047527;28;20441;-84
2023/01/10 02:42:06;;;;;;;0.30;0.30;;;5.60;99.90;;;;;;5030150;28;20437;-85
2023/01/10 02:44:50;;;;;;;0.30;0.30;;;5.60;99.90;;;;;;5048333;28;20437;-85
2023/01/10 02:47:16;;;;;;;0.30;0.30;;;5.60;99.90;;;;;;5047819;28;20473;-85
2023/01/10 02:49:47;;;;;;;0.30;0.30;;;5.60;99.90;;;;;;5048685;28;20534;-85
2023/01/10 02:52:19;;;;;;;0.30;0.30;;;5.60;99.90;;;;;;5048289;28;20273;-84
2023/01/10 02:54:45;;;;;;;0.30;0.30;;;5.50;99.90;;;;;;5028004;28;20450;-85
2023/01/10 02:57:36;;;;;;;0.30;0.30;;;5.50;99.90;;;;;;5045133;28;20481;-85
2023/01/10 03:00:15;;;;;;;0.30;0.30;;;5.50;99.90;;;;;;5049057;28;20651;-84
2023/01/10 03:03:05;;;;;;;0.30;0.30;;;5.50;99.90;;;;;;5044679;28;20468;-85
2023/01/10 03:05:46;;;;;;;0.30;0.30;;;5.50;99.90;;;;;;5048336;28;20968;-84
2023/01/10 03:08:36;;;;;;;0.30;0.30;;;5.50;99.90;;;;;;5048051;28;21009;-85
2023/01/10 03:11:09;;;;;;;0.20;0.20;;;5.60;99.90;;;;;;5049427;28;20541;-84
2023/01/10 03:13:49;;;;;;;0.20;0.20;;;5.50;99.90;;;;;;5046140;28;20484;-84
2023/01/10 03:16:18;;;;;;;0.30;0.30;;;5.60;99.90;;;;;;5047005;28;20445;-85
2023/01/10 03:19:07;;;;;;;0.30;0.30;;;5.50;99.90;;;;;;5028346;28;20956;-84
2023/01/10 03:21:34;;;;;;;0.30;0.30;;;5.50;99.90;;;;;;5030824;28;20458;-84
2023/01/10 03:24:06;;;;;;;0.30;0.30;;;5.50;99.90;;;;;;5049813;28;20933;-84
2023/01/10 03:26:48;;;;;;;0.30;0.30;;;5.50;99.90;;;;;;5047294;28;20495;-85
2023/01/10 03:29:20;;;;;;;0.30;0.30;;;5.50;99.90;;;;;;5043910;28;20498;-85
2023/01/10 03:31:52;;;;;;;0.30;0.30;;;5.50;99.90;;;;;;5043736;28;20477;-86
2023/01/10 03:34:18;;;;;;;0.30;0.30;;;5.40;99.90;;;;;;5047459;28;20453;-85
2023/01/10 03:37:11;;;;;;;0.30;0.30;;;5.40;99.90;;;;;;5049309;28;20453;-85
2023/01/10 03:39:46;;;;;;;0.30;0.30;;;5.40;99.90;;;;;;5029356;28;20444;-85
2023/01/10 03:42:28;;;;;;;0.30;0.30;;;5.30;99.90;;;;;;5048462;28;20452;-85
2023/01/10 03:45:08;;;;;;;0.40;0.40;;;5.20;99.90;;;;;;5048421;28;20449;-84
2023/01/10 03:47:45;;;;;;;0.30;0.30;;;5.20;99.90;;;;;;5014550;28;21216;-85
2023/01/10 03:50:16;;;;;;;0.30;0.30;;;5.10;99.90;;;;;;5042868;28;20449;-85
2023/01/10 03:52:42;;;;;;;0.30;0.30;;;5.10;99.90;;;;;;5044421;28;21100;-85
2023/01/10 03:55:12;;;;;;;0.30;0.30;;;5.10;99.90;;;;;;5045675;28;20451;-85
2023/01/10 03:57:41;;;;;;;0.30;0.30;;;5.10;99.90;;;;;;5028016;28;20453;-84
2023/01/10 04:00:08;;;;;;;0.20;0.20;;;5.00;99.90;;;;;;5039490;28;20516;-84
2023/01/10 04:02:33;;;;;;;0.30;0.30;;;5.00;99.90;;;;;;5048142;28;20441;-85
2023/01/10 04:04:59;;;;;;;0.30;0.30;;;5.00;99.90;;;;;;5030964;28;20495;-84
2023/01/10 04:07:25;;;;;;;0.30;0.30;;;5.00;99.90;;;;;;5030534;28;20197;-82
2023/01/10 04:09:50;;;;;;;0.40;0.40;;;5.00;99.90;;;;;;5042117;28;20191;-85
2023/01/10 04:12:16;;;;;;;0.40;0.40;;;5.00;99.90;;;;;;5046624;28;22015;-85
2023/01/10 04:14:45;;;;;;;0.30;0.30;;;5.00;99.90;;;;;;5049260;28;20186;-85
2023/01/10 04:17:11;;;;;;;0.30;0.30;;;5.00;99.90;;;;;;5048185;28;20806;-85
2023/01/10 04:19:36;;;;;;;0.30;0.30;;;5.00;99.90;;;;;;5047050;28;20433;-84
2023/01/10 04:22:04;;;;;;;0.30;0.30;;;5.00;99.90;;;;;;5042345;28;20190;-85
2023/01/10 04:24:30;;;;;;;0.30;0.30;;;5.00;99.90;;;;;;5030918;28;20201;-84
2023/01/10 04:26:55;;;;;;;0.30;0.30;;;4.90;99.90;;;;;;5042702;28;20940;-85
2023/01/10 04:29:21;;;;;;;0.30;0.30;;;4.90;99.90;;;;;;5045776;28;20245;-85
2023/01/10 04:31:46;;;;;;;0.30;0.30;;;4.90;99.90;;;;;;5030745;28;20629;-85
2023/01/10 04:34:12;;;;;;;0.30;0.30;;;4.80;99.90;;;;;;5033232;28;20279;-85
2023/01/10 04:36:37;;;;;;;0.30;0.30;;;4.80;99.90;;;;;;5033399;28;20188;-85
2023/01/10 04:39:03;;;;;;;0.30;0.30;;;4.80;99.90;;;;;;5034842;28;20286;-85
2023/01/10 04:41:29;;;;;;;0.40;0.40;;;4.80;99.90;;;;;;5045614;28;20201;-85
2023/01/10 04:43:55;;;;;;;0.30;0.30;;;4.70;99.90;;;;;;5037582;28;20673;-85
2023/01/10 04:46:20;;;;;;;0.30;0.30;;;4.70;99.90;;;;;;5037955;28;21008;-85
2023/01/10 04:48:46;;;;;;;0.30;0.30;;;4.70;99.90;;;;;;5046392;28;20179;-85
2023/01/10 04:51:11;;;;;;;0.30;0.30;;;4.70;99.90;;;;;;5038709;28;20195;-85
2023/01/10 04:53:37;;;;;;;0.30;0.30;;;4.70;99.90;;;;;;5042560;28;20191;-86
2023/01/10 04:56:05;;;;;;;0.30;0.30;;;4.70;99.90;;;;;;5047187;28;20178;-85
2023/01/10 04:58:37;;;;;;;0.30;0.30;;;4.60;99.90;;;;;;5051544;28;20433;-85
2023/01/10 05:01:23;;;;;;;0.30;0.30;;;4.60;99.90;;;;;;5049398;28;20449;-85
2023/01/10 05:03:50;;;;;;;0.20;0.20;;;4.60;99.90;;;;;;5052726;28;21199;-85
2023/01/10 05:06:16;;;;;;;0.30;0.30;;;4.60;99.90;;;;;;5050033;28;20484;-86
2023/01/10 05:08:43;;;;;;;0.30;0.30;;;4.60;99.90;;;;;;5033854;28;20486;-87
2023/01/10 05:11:08;;;;;;;0.30;0.30;;;4.60;99.90;;;;;;5032254;28;20855;-87
2023/01/10 05:13:35;;;;;;;0.30;0.30;;;4.60;99.90;;;;;;5050156;28;20710;-87
2023/01/10 05:16:00;;;;;;;0.30;0.30;;;4.60;99.90;;;;;;5050653;28;20451;-87
2023/01/10 05:18:27;;;;;;;0.30;0.30;;;4.70;99.90;;;;;;5030745;28;20183;-87
2023/01/10 05:21:08;;;;;;;0.30;0.30;;;4.70;99.90;;;;;;5031079;28;20262;-87
2023/01/10 05:23:34;;;;;;;0.30;0.30;;;4.70;99.90;;;;;;5051313;28;20445;-87
2023/01/10 05:26:20;;;;;;;0.40;0.40;;;4.70;99.90;;;;;;5050800;28;20932;-87
2023/01/10 05:28:46;;;;;;;0.30;0.30;;;4.70;99.90;;;;;;5046068;28;20252;-87
2023/01/10 05:31:13;;;;;;;0.40;0.40;;;4.80;99.90;;;;;;5050796;28;20937;-87
2023/01/10 05:33:43;;;;;;;0.30;0.30;;;4.80;99.90;;;;;;5048983;28;20195;-86
2023/01/10 05:36:09;;;;;;;0.30;0.30;;;4.70;99.90;;;;;;5047179;28;20532;-86
2023/01/10 05:38:34;;;;;;;0.30;0.30;;;4.70;99.90;;;;;;5047373;28;20540;-86
2023/01/10 05:41:00;;;;;;;0.30;0.30;;;4.70;99.90;;;;;;5042512;28;20262;-87
2023/01/10 05:43:27;;;;;;;0.30;0.30;;;4.70;99.90;;;;;;5032206;28;20244;-87
2023/01/10 05:45:53;;;;;;;0.30;0.30;;;4.70;99.90;;;;;;5050295;28;20436;-86
2023/01/10 05:48:19;;;;;;;0.30;0.30;;;4.70;99.90;;;;;;5033682;28;20536;-87
2023/01/10 05:50:45;;;;;;;0.30;0.30;;;4.70;99.90;;;;;;5045445;28;20436;-86
2023/01/10 05:53:10;;;;;;;0.30;0.30;;;4.70;99.90;;;;;;5043008;28;21026;-87
2023/01/10 05:55:36;;;;;;;0.37;0.37;;;4.70;99.90;;;;;;5049315;28;20467;-86
2023/01/10 05:58:02;;;;;;;0.27;0.27;;;4.70;99.90;;;;;;5031345;28;20237;-86
2023/01/10 06:00:28;;;;;;;0.30;0.30;;;4.60;99.90;;;;;;5050714;28;20183;-87
2023/01/10 06:02:54;;;;;;;0.40;0.40;;;4.70;99.90;;;;;;5044067;28;20460;-87
2023/01/10 06:05:20;;;;;;;0.40;0.40;;;4.70;99.90;;;;;;5050294;28;20731;-87
2023/01/10 06:07:46;;;;;;;0.30;0.30;;;4.60;99.90;;;;;;5032555;28;20544;-86
2023/01/10 06:10:11;;;;;;;0.30;0.30;;;4.60;99.90;;;;;;5049076;28;20528;-86
2023/01/10 06:12:40;;;;;;;0.30;0.30;;;4.60;99.90;;;;;;5041913;28;20678;-86
2023/01/10 06:15:07;;;;;;;0.40;0.40;;;4.60;99.90;;;;;;5049494;28;20182;-86
2023/01/10 06:17:32;;;;;;;0.30;0.30;;;4.60;99.90;;;;;;5049060;28;20454;-87
2023/01/10 06:19:58;;;;;;;0.40;0.40;;;4.60;99.90;;;;;;5043603;28;20450;-85
2023/01/10 06:22:25;;;;;;;0.30;0.30;;;4.50;99.90;;;;;;5041223;28;20198;-87
2023/01/10 06:24:50;;;;;;;0.40;0.40;;;4.60;99.90;;;;;;5046924;28;20285;-86
2023/01/10 06:27:16;;;;;;;0.30;0.30;;;4.60;99.90;;;;;;5045297;28;20540;-87
2023/01/10 06:29:41;;;;;;;0.30;0.30;;;4.60;99.90;;;;;;5043368;28;20190;-86
2023/01/10 06:32:07;;;;;;;0.30;0.30;;;4.60;99.90;;;;;;5039838;28;20214;-89
2023/01/10 06:34:32;;;;;;;0.30;0.30;;;4.60;99.90;;;;;;5027620;28;20278;-87
2023/01/10 06:36:58;;;;;;;0.30;0.30;;;4.60;99.90;;;;;;5034360;28;20654;-88
2023/01/10 06:39:23;;;;;;;0.30;0.30;;;4.60;99.90;;;;;;5048745;28;20777;-87
2023/01/10 06:41:49;;;;;;;0.30;0.30;;;4.60;99.90;;;;;;5046168;28;20236;-87
2023/01/10 06:44:14;;;;;;;0.30;0.30;;;4.60;99.90;;;;;;5031432;28;20187;-87
2023/01/10 06:46:39;;;;;;;0.30;0.30;;;4.70;99.90;;;;;;5049505;28;20190;-88
2023/01/10 06:49:05;;;;;;;0.30;0.30;;;4.60;99.90;;;;;;5043208;28;20251;-87
2023/01/10 06:51:31;;;;;;;0.30;0.30;;;4.60;99.90;;;;;;5048469;28;20214;-88
2023/01/10 06:54:04;;;;;;;0.30;0.30;;;4.60;99.90;;;;;;5046777;28;20187;-88
2023/01/10 06:56:30;;;;;;;0.30;0.30;;;4.60;99.90;;;;;;5042809;28;20279;-88
2023/01/10 06:58:55;;;;;;;0.30;0.30;;;4.60;99.90;;;;;;5043617;28;20533;-86
2023/01/10 07:01:21;;;;;;;0.30;0.30;;;4.60;99.90;;;;;;5039802;28;20696;-87
2023/01/10 07:03:47;;;;;;;0.30;0.30;;;4.50;99.90;;;;;;5048115;28;20182;-87
2023/01/10 07:06:13;;;;;;;0.40;0.40;;;4.50;99.90;;;;;;5047955;28;20230;-86
2023/01/10 07:08:41;;;;;;;0.30;0.30;;;4.50;99.90;;;;;;5045970;28;20530;-86
2023/01/10 07:11:08;;;;;;;0.30;0.30;;;4.50;99.90;;;;;;5039992;28;20219;-86
2023/01/10 07:13:34;;;;;;;0.30;0.30;;;4.50;99.90;;;;;;5042782;28;20453;-87
2023/01/10 07:16:04;;;;;;;0.40;0.40;;;4.50;99.90;;;;;;5042682;28;20456;-86
2023/01/10 07:18:30;;;;;;;0.30;0.30;;;4.50;99.90;;;;;;5040732;28;20282;-86
2023/01/10 07:20:56;;;;;;;0.30;0.30;;;4.50;99.90;;;;;;5044269;28;20454;-86
2023/01/10 07:23:21;;;;;;;0.30;0.30;;;4.50;99.90;;;;;;5026919;28;20510;-86
2023/01/10 07:25:47;;;;;;;0.30;0.30;;;4.50;99.90;;;;;;5043129;28;20191;-86
2023/01/10 07:28:12;;;;;;;0.30;0.30;;;4.50;99.90;;;;;;5043525;28;20213;-86
2023/01/10 07:30:38;;;;;;;0.40;0.40;;;4.40;99.90;;;;;;5047522;28;20191;-87
2023/01/10 07:33:05;;;;;;;0.30;0.30;;;4.40;99.90;;;;;;5042619;28;20810;-88
2023/01/10 07:35:30;;;;;;;0.40;0.40;;;4.50;99.90;;;;;;5044443;28;20611;-88
2023/01/10 07:38:00;;;;;;;0.30;0.30;;;4.40;99.90;;;;;;5046343;28;20548;-89
2023/01/10 07:40:26;;;;;;;0.30;0.30;;;4.40;99.90;;;;;;5040455;28;20666;-87
2023/01/10 07:43:01;;;;;;;0.40;0.40;;;4.40;99.90;;;;;;5046186;28;20812;-87
2023/01/10 07:45:28;;;;;;;0.30;0.30;;;4.40;99.90;;;;;;5041721;28;20432;-87
2023/01/10 07:48:02;;;;;;;0.30;0.30;;;4.40;99.90;;;;;;5041354;28;20433;-87
2023/01/10 07:50:29;;;;;;;0.30;0.30;;;4.30;99.90;;;;;;5048582;28;20457;-87
2023/01/10 07:52:57;;;;;;;0.30;0.30;;;4.30;99.90;;;;;;5045744;28;20853;-86
2023/01/10 07:55:23;;;;;;;0.40;0.40;;;4.20;99.90;;;;;;5041559;28;20484;-87
2023/01/10 07:57:49;;;;;;;0.30;0.30;;;4.20;99.90;;;;;;5043154;28;20544;-88
2023/01/10 08:00:15;;;;;;;0.30;0.30;;;4.20;99.90;;;;;;5043679;28;20261;-86
2023/01/10 08:02:40;;;;;;;0.40;0.40;;;4.20;99.90;;;;;;5045413;28;20452;-88
2023/01/10 08:05:06;;;;;;;0.30;0.30;;;4.20;99.90;;;;;;5046999;28;20522;-87
2023/01/10 08:07:32;;;;;;;0.40;0.40;;;4.20;99.90;;;;;;5046319;28;20179;-88
2023/01/10 08:09:58;;;;;;;0.33;0.33;;;4.20;99.90;;;;;;5047635;28;20265;-87
2023/01/10 08:12:23;;;;;;;0.30;0.30;;;4.20;99.90;;;;;;5047170;28;20253;-88
2023/01/10 08:14:52;;;;;;;0.30;0.30;;;4.20;99.90;;;;;;5047876;28;20445;-87
2023/01/10 08:17:18;;;;;;;0.33;0.33;;;4.20;99.90;;;;;;5047316;28;20460;-87
2023/01/10 08:19:44;;;;;;;0.30;0.30;;;4.20;99.90;;;;;;5048073;28;20945;-87
2023/01/10 08:22:10;;;;;;;0.40;0.40;;;4.20;99.90;;;;;;5027003;28;20442;-87
2023/01/10 08:24:36;;;;;;;0.30;0.30;;;4.20;99.90;;;;;;5047257;28;20660;-87
2023/01/10 08:27:02;;;;;;;0.30;0.30;;;4.20;99.90;;;;;;5040818;28;20524;-87
2023/01/10 08:29:28;;;;;;;0.30;0.30;;;4.20;99.90;;;;;;5049695;28;20187;-87
2023/01/10 08:31:54;;;;;;;0.40;0.40;;;4.30;99.90;;;;;;5033594;28;20551;-87
2023/01/10 08:34:19;;;;;;;0.30;0.30;;;4.30;99.90;;;;;;5054435;28;20443;-87
2023/01/10 08:36:48;;;;;;;0.40;0.40;;;4.30;99.90;;;;;;5040247;28;20453;-87
2023/01/10 08:39:14;;;;;;;0.40;0.40;;;4.40;99.90;;;;;;5034816;28;20208;-87
2023/01/10 08:41:40;;;;;;;0.40;0.40;;;4.50;99.90;;;;;;5049613;28;20441;-87
2023/01/10 08:44:05;;;;;;;0.30;0.30;;;4.50;99.90;;;;;;5035373;28;20294;-87
2023/01/10 08:46:31;;;;;;;0.40;0.40;;;4.60;99.90;;;;;;5047594;28;20197;-86
2023/01/10 08:48:56;;;;;;;0.30;0.30;;;4.60;99.90;;;;;;5047739;28;20244;-86
2023/01/10 08:51:22;;;;;;;0.40;0.40;;;4.60;99.90;;;;;;5048612;28;20203;-87
2023/01/10 08:53:47;;;;;;;0.40;0.40;;;4.70;99.90;;;;;;5050167;28;20628;-87
2023/01/10 08:56:13;;;;;;;0.30;0.30;;;4.70;99.90;;;;;;5045176;28;20179;-87
2023/01/10 08:58:39;;;;;;;0.30;0.30;;;4.70;99.90;;;;;;5047121;28;20729;-85
2023/01/10 09:01:06;;;;;;;0.30;0.30;;;4.70;99.90;;;;;;5050661;28;20191;-86
2023/01/10 09:03:31;;;;;;;0.30;0.30;;;4.80;99.90;;;;;;5052789;28;20187;-86
2023/01/10 09:06:00;;;;;;;0.33;0.33;;;4.80;99.90;;;;;;5051513;28;20862;-86
2023/01/10 09:08:26;;;;;;;0.30;0.30;;;4.80;99.90;;;;;;5047663;28;20214;-86
2023/01/10 09:10:52;;;;;;;0.30;0.30;;;4.80;99.90;;;;;;5033088;28;20449;-86
2023/01/10 09:13:17;;;;;;;0.40;0.40;;;4.80;99.90;;;;;;5038793;28;20598;-86
2023/01/10 09:15:44;;;;;;;0.40;0.40;;;4.70;99.90;;;;;;5043789;28;20520;-85
2023/01/10 09:18:12;;;;;;;0.40;0.40;;;4.80;99.90;;;;;;5046600;28;20274;-86
2023/01/10 09:20:40;;;;;;;0.40;0.40;;;4.70;99.90;;;;;;5051717;28;20448;-86
2023/01/10 09:23:08;;;;;;;0.30;0.30;;;4.80;99.90;;;;;;5049061;28;21001;-86
2023/01/10 09:25:34;;;;;;;0.30;0.30;;;4.80;99.90;;;;;;5050253;28;20476;-87
2023/01/10 09:28:02;;;;;;;0.30;0.30;;;4.90;99.90;;;;;;5045340;28;20485;-87
2023/01/10 09:30:29;;;;;;;0.30;0.30;;;4.90;99.90;;;;;;5051451;28;20210;-86
2023/01/10 09:32:56;;;;;;;0.30;0.30;;;4.80;99.90;;;;;;5028572;28;20484;-87
2023/01/10 09:35:22;;;;;;;0.23;0.23;;;4.90;99.90;;;;;;5049304;28;20995;-87
2023/01/10 09:37:48;;;;;;;0.30;0.30;;;4.80;99.90;;;;;;5028774;28;20535;-86
2023/01/10 09:40:18;;;;;;;0.30;0.30;;;4.80;99.90;;;;;;5050454;28;20533;-86
2023/01/10 09:42:58;;;;;;;0.40;0.40;;;4.90;99.90;;;;;;5049701;28;20201;-86
2023/01/10 09:45:38;;;;;;;0.40;0.40;;;4.90;99.90;;;;;;5032184;28;20459;-86
2023/01/10 09:48:08;;;;;;;0.30;0.30;;;5.00;99.90;;;;;;5047759;28;20455;-86
2023/01/10 09:51:05;;;;;;;0.30;0.30;;;5.00;99.90;;;;;;5029405;28;20476;-86
2023/01/10 09:53:35;;;;;;;0.30;0.30;;;5.00;99.90;;;;;;5039114;28;20493;-87
2023/01/10 09:56:01;;;;;;;0.40;0.40;;;5.00;99.90;;;;;;5039535;28;20449;-86
2023/01/10 09:58:30;;;;;;;0.30;0.30;;;5.00;99.90;;;;;;5025591;28;20441;-87
2023/01/10 10:01:02;;;;;;;0.30;0.30;;;5.10;99.90;;;;;;5046673;28;20437;-86
2023/01/10 10:03:50;;;;;;;0.30;0.30;;;5.10;99.90;;;;;;5048669;28;20473;-87
2023/01/10 10:06:16;;;;;;;0.30;0.30;;;5.10;99.90;;;;;;5032555;28;20477;-86
2023/01/10 10:08:44;;;;;;;0.30;0.30;;;5.20;99.90;;;;;;5041822;28;20957;-87
2023/01/10 10:11:19;;;;;;;0.20;0.20;;;5.20;99.90;;;;;;5045723;28;20183;-87
2023/01/10 10:14:06;;;;;;;0.40;0.40;;;5.30;99.90;;;;;;5041058;28;20461;-85
2023/01/10 10:16:43;;;;;;;0.30;0.30;;;5.30;99.90;;;;;;5041773;28;20445;-87
2023/01/10 10:19:26;;;;;;;0.30;0.30;;;5.30;99.90;;;;;;5038453;28;20499;-85
2023/01/10 10:22:14;;;;;;;0.30;0.30;;;5.30;99.90;;;;;;5049210;28;20445;-85
2023/01/10 10:24:57;;;;;;;0.40;0.40;;;5.30;99.90;;;;;;5046098;28;20448;-86
2023/01/10 10:27:33;;;;;;;0.30;0.30;;;5.30;99.90;;;;;;5041433;28;20437;-85
2023/01/10 10:30:17;;;;;;;0.30;0.30;;;5.30;99.90;;;;;;5044063;28;20460;-86
2023/01/10 10:32:55;;;;;;;0.30;0.30;;;5.40;99.90;;;;;;5039143;28;20486;-87
2023/01/10 10:35:30;;;;;;;0.30;0.30;;;5.40;99.90;;;;;;5046479;28;20918;-87
2023/01/10 10:38:02;;;;;;;0.30;0.30;;;5.40;99.90;;;;;;5047731;28;20448;-87
2023/01/10 10:40:32;;;;;;;0.30;0.30;;;5.40;99.90;;;;;;5045213;28;20455;-87
2023/01/10 10:43:10;;;;;;;0.30;0.30;;;5.50;99.90;;;;;;5046128;28;20941;-87
2023/01/10 10:45:43;;;;;;;0.30;0.30;;;5.50;99.90;;;;;;5023612;28;23529;-87
2023/01/10 10:48:14;;;;;;;0.30;0.30;;;5.50;99.90;;;;;;5041267;28;20491;-86
2023/01/10 10:51:01;;;;;;;0.30;0.30;;;5.50;99.90;;;;;;5023909;28;20510;-87
2023/01/10 10:53:28;;;;;;;0.30;0.30;;;5.60;99.90;;;;;;5038589;28;21048;-87
2023/01/10 10:55:55;;;;;;;0.30;0.30;;;5.60;99.90;;;;;;5040172;28;20529;-87
2023/01/10 10:58:20;;;;;;;0.20;0.20;;;5.60;99.90;;;;;;5039115;28;20510;-83
2023/01/10 11:00:46;;;;;;;0.30;0.30;;;5.60;99.90;;;;;;5047412;28;20437;-87
2023/01/10 11:03:26;;;;;;;0.30;0.30;;;5.60;99.90;;;;;;5049272;28;20205;-86
2023/01/10 11:05:52;;;;;;;0.30;0.30;;;5.60;99.90;;;;;;5047558;28;20488;-85
2023/01/10 11:08:20;;;;;;;0.30;0.30;;;5.60;99.90;;;;;;5045401;28;20550;-86
2023/01/10 11:10:54;;;;;;;0.40;0.40;;;5.60;99.90;;;;;;5050240;28;20441;-85
2023/01/10 11:13:31;;;;;;;0.30;0.30;;;5.60;99.90;;;;;;5047685;28;20482;-86
2023/01/10 11:15:59;;;;;;;0.30;0.30;;;5.70;99.90;;;;;;5047666;28;21026;-86
2023/01/10 11:18:27;;;;;;;0.30;0.30;;;5.70;99.90;;;;;;5049133;28;20441;-85
2023/01/10 11:21:10;;;;;;;0.30;0.30;;;5.80;99.90;;;;;;5044453;28;20452;-86
2023/01/10 11:23:40;;;;;;;0.30;0.30;;;5.80;99.90;;;;;;5046327;28;20444;-87
2023/01/10 11:26:19;;;;;;;0.30;0.30;;;5.80;99.90;;;;;;5045776;28;20429;-89
2023/01/10 11:28:45;;;;;;;0.30;0.30;;;5.80;99.90;;;;;;5044841;28;20803;-90
2023/01/10 11:31:10;;;;;;;0.20;0.20;;;5.80;99.90;;;;;;5049913;28;20449;-90
2023/01/10 11:33:38;;;;;;;0.30;0.30;;;5.80;99.90;;;;;;5048214;28;20225;-91
2023/01/10 11:36:08;;;;;;;0.30;0.30;;;5.80;99.90;;;;;;5044735;28;20236;-91
2023/01/10 11:38:34;;;;;;;0.30;0.30;;;5.80;99.90;;;;;;5042199;28;20826;-89
2023/01/10 11:41:24;;;;;;;0.30;0.30;;;5.90;99.90;;;;;;5031128;28;20501;-88
2023/01/10 11:43:49;;;;;;;0.30;0.30;;;5.90;99.90;;;;;;5039901;28;20528;-89
2023/01/10 11:46:20;;;;;;;0.23;0.23;;;5.90;99.90;;;;;;5045287;28;20528;-88
2023/01/10 11:48:59;;;;;;;0.30;0.30;;;5.90;99.90;;;;;;5048585;28;20213;-90
2023/01/10 11:51:30;;;;;;;0.30;0.30;;;5.90;99.90;;;;;;5053340;28;20914;-91
2023/01/10 11:53:59;;;;;;;0.30;0.30;;;5.90;99.90;;;;;;5029312;28;20446;-91
2023/01/10 11:56:28;;;;;;;0.30;0.30;;;5.90;99.90;;;;;;5043583;28;20494;-89
2023/01/10 11:58:55;;;;;;;0.20;0.20;;;5.90;99.90;;;;;;5048511;28;20472;-90
2023/01/10 12:01:46;;;;;;;0.20;0.20;;;5.90;99.90;;;;;;5040959;28;20463;-89
2023/01/10 12:04:21;;;;;;;0.30;0.30;;;6.00;99.90;;;;;;5049051;28;20455;-90
2023/01/10 12:06:50;;;;;;;0.20;0.20;;;6.00;99.90;;;;;;5031561;28;20519;-89
2023/01/10 12:09:41;;;;;;;0.30;0.30;;;6.00;99.90;;;;;;5045053;28;20527;-90
2023/01/10 12:12:09;;;;;;;0.27;0.27;;;6.00;99.90;;;;;;5031130;28;20465;-89
2023/01/10 12:14:34;;;;;;;0.30;0.30;;;6.00;99.90;;;;;;5047220;28;20453;-87
2023/01/10 12:17:02;;;;;;;0.20;0.20;;;6.00;99.90;;;;;;5042147;28;20948;-88
2023/01/10 12:19:28;;;;;;;0.30;0.30;;;6.00;99.90;;;;;;5034914;28;20190;-89
2023/01/10 12:21:58;;;;;;;0.30;0.30;;;6.10;99.90;;;;;;5041897;28;20458;-89
2023/01/10 12:24:31;;;;;;;0.30;0.30;;;6.10;99.90;;;;;;5025157;28;20194;-87
2023/01/10 12:26:59;;;;;;;0.27;0.27;;;6.10;99.90;;;;;;5040653;28;20484;-88
2023/01/10 12:29:31;;;;;;;0.30;0.30;;;6.20;99.90;;;;;;5029824;28;20433;-87
2023/01/10 12:31:58;;;;;;;0.30;0.30;;;6.20;99.90;;;;;;5046295;28;20484;-87
2023/01/10 12:34:47;;;;;;;0.30;0.30;;;6.20;99.90;;;;;;5043670;28;20451;-87
2023/01/10 12:37:35;;;;;;;0.20;0.20;;;6.20;99.90;;;;;;5048700;28;20520;-88
2023/01/10 12:40:13;;;;;;;0.30;0.30;;;6.30;99.90;;;;;;5028678;28;20431;-88
2023/01/10 12:45:55;;;;;;;0.30;0.30;;;6.30;99.90;;;;;;5038645;28;20579;-88
2023/01/10 12:48:37;;;;;;;0.20;0.20;;;6.20;99.90;;;;;;5046257;28;20445;-87
2023/01/10 12:51:12;;;;;;;0.30;0.30;;;6.30;99.90;;;;;;5044880;28;20441;-86
2023/01/10 12:53:43;;;;;;;0.30;0.30;;;6.30;99.90;;;;;;5047714;28;20488;-86
2023/01/10 12:56:13;;;;;;;0.30;0.30;;;6.30;99.90;;;;;;5025620;28;20446;-88
2023/01/10 12:59:02;;;;;;;0.30;0.30;;;6.30;99.90;;;;;;5045175;28;20441;-86
2023/01/10 13:01:41;;;;;;;0.30;0.30;;;6.30;99.90;;;;;;5036738;28;20530;-86
2023/01/10 13:04:11;;;;;;;0.30;0.30;;;6.30;99.90;;;;;;5041281;28;20439;-86
2023/01/10 13:06:42;;;;;;;0.30;0.30;;;6.40;99.90;;;;;;5028527;28;20453;-86
2023/01/10 13:09:15;;;;;;;0.30;0.30;;;6.40;99.90;;;;;;5027869;28;20508;-89
2023/01/10 13:12:16;;;;;;;0.30;0.30;;;6.40;99.90;;;;;;5021345;28;20504;-87
2023/01/10 13:14:58;;;;;;;0.30;0.30;;;6.40;99.90;;;;;;5025746;28;20452;-89
2023/01/10 13:17:30;;;;;;;0.30;0.30;;;6.40;99.90;;;;;;5028808;28;20439;-89
2023/01/10 13:20:15;;;;;;;0.30;0.30;;;6.40;99.90;;;;;;5050583;28;20448;-89
2023/01/10 13:22:43;;;;;;;0.30;0.30;;;6.40;99.90;;;;;;5029551;28;20457;-92